createdAt,value
2019-01-24T00:01:50.075Z,95107.75
2019-01-24T00:04:16.883Z,95113.85
2019-01-24T00:06:43.090Z,95111.16
2019-01-24T00:09:09.230Z,95113.47
2019-01-24T00:11:37.862Z,95112.20
2019-01-24T00:14:04.098Z,95142.42
2019-01-24T00:16:32.695Z,95123.52
2019-01-24T00:18:58.553Z,95125.00
2019-01-24T00:21:24.687Z,95126.88
2019-01-24T00:23:50.480Z,95126.80
2019-01-24T00:26:16.337Z,95123.87
2019-01-24T00:28:42.211Z,95133.56
2019-01-24T00:31:08.018Z,95140.36
2019-01-24T00:33:39.603Z,95143.22
2019-01-24T00:36:05.697Z,95142.60
2019-01-24T00:38:31.534Z,95146.61
2019-01-24T00:40:57.385Z,95146.51
2019-01-24T00:43:29.004Z,95152.17
2019-01-24T00:45:54.857Z,95150.89
2019-01-24T00:48:23.701Z,95159.64
2019-01-24T00:50:49.982Z,95155.09
2019-01-24T00:53:15.816Z,95159.44
2019-01-24T00:55:41.670Z,95169.41
2019-01-24T00:58:07.496Z,95173.28
2019-01-24T01:00:33.406Z,95174.55
2019-01-24T01:02:59.247Z,95174.34
2019-01-24T01:05:28.373Z,95178.55
2019-01-24T01:07:54.217Z,95193.01
2019-01-24T01:10:23.107Z,95188.75
2019-01-24T01:12:49.303Z,95194.14
2019-01-24T01:15:18.229Z,95192.70
2019-01-24T01:17:45.032Z,95216.69
2019-01-24T01:20:19.150Z,95196.68
2019-01-24T01:22:45.395Z,95200.50
2019-01-24T01:25:11.719Z,95196.30
2019-01-24T01:27:37.641Z,95198.20
2019-01-24T01:30:07.273Z,95197.95
2019-01-24T01:32:33.220Z,95197.48
2019-01-24T01:34:59.065Z,95200.19
2019-01-24T01:37:25.164Z,95204.95
2019-01-24T01:39:51.264Z,95210.13
2019-01-24T01:42:17.206Z,95218.20
2019-01-24T01:44:43.021Z,95216.03
2019-01-24T01:47:08.832Z,95223.05
2019-01-24T01:49:34.938Z,95226.16
2019-01-24T01:52:04.063Z,95230.36
2019-01-24T01:54:29.909Z,95245.44
2019-01-24T01:56:56.975Z,95236.47
2019-01-24T01:59:22.813Z,95240.59
2019-01-24T02:01:51.996Z,95242.55
2019-01-24T02:04:17.834Z,95242.08
2019-01-24T02:06:48.841Z,95238.47
2019-01-24T02:09:14.675Z,95243.78
2019-01-24T02:11:40.502Z,95247.00
2019-01-24T02:14:06.353Z,95246.88
2019-01-24T02:16:32.211Z,95248.62
2019-01-24T02:18:58.062Z,95246.11
2019-01-24T02:21:24.224Z,95249.89
2019-01-24T02:23:53.339Z,95247.00
2019-01-24T02:26:19.442Z,95265.23
2019-01-24T02:28:47.745Z,95251.21
2019-01-24T02:31:13.883Z,95249.09
2019-01-24T02:33:44.671Z,95256.73
2019-01-24T02:36:10.741Z,95260.09
2019-01-24T02:38:39.592Z,95258.09
2019-01-24T02:41:05.406Z,95286.78
2019-01-24T02:43:34.103Z,95255.20
2019-01-24T02:45:59.930Z,95274.75
2019-01-24T02:48:25.861Z,95258.42
2019-01-24T02:50:51.685Z,95260.00
2019-01-24T02:53:17.555Z,95260.00
2019-01-24T02:55:43.357Z,95264.84
2019-01-24T02:58:09.198Z,95268.16
2019-01-24T03:00:39.775Z,95275.30
2019-01-24T03:03:05.576Z,95278.23
2019-01-24T03:05:34.446Z,95274.83
2019-01-24T03:08:00.283Z,95292.84
2019-01-24T03:10:29.137Z,95270.84
2019-01-24T03:12:54.961Z,95291.83
2019-01-24T03:15:23.830Z,95279.47
2019-01-24T03:17:50.041Z,95299.04
2019-01-24T03:20:17.387Z,95286.56
2019-01-24T03:22:43.719Z,95296.80
2019-01-24T03:25:11.734Z,95287.67
2019-01-24T03:27:37.594Z,95287.67
2019-01-24T03:30:06.823Z,95291.83
2019-01-24T03:32:32.625Z,95299.94
2019-01-24T03:35:04.108Z,95301.60
2019-01-24T03:37:26.195Z,95303.60
2019-01-24T03:39:52.300Z,95302.49
2019-01-24T03:42:18.501Z,95303.69
2019-01-24T03:44:44.635Z,95303.64
2019-01-24T03:47:13.512Z,95301.86
2019-01-24T03:49:39.323Z,95328.16
2019-01-24T03:52:08.212Z,95310.31
2019-01-24T03:54:34.038Z,95338.22
2019-01-24T03:57:02.984Z,95318.54
2019-01-24T03:59:29.185Z,95329.44
2019-01-24T04:01:55.023Z,95323.07
2019-01-24T04:04:21.161Z,95322.47
2019-01-24T04:06:46.976Z,95323.17
2019-01-24T04:09:13.918Z,95328.58
2019-01-24T04:11:40.012Z,95325.89
2019-01-24T04:14:08.953Z,95324.57
2019-01-24T04:16:34.806Z,95333.71
2019-01-24T04:19:03.480Z,95329.38
2019-01-24T04:21:29.339Z,95351.73
2019-01-24T04:23:58.699Z,95335.16
2019-01-24T04:26:24.557Z,95336.77
2019-01-24T04:28:55.342Z,95337.53
2019-01-24T04:31:21.157Z,95338.55
2019-01-24T04:33:49.771Z,95334.23
2019-01-24T04:36:15.587Z,95335.94
2019-01-24T04:38:41.468Z,95336.72
2019-01-24T04:41:07.577Z,95340.27
2019-01-24T04:43:33.384Z,95345.33
2019-01-24T04:45:59.356Z,95342.59
2019-01-24T04:48:25.175Z,95349.73
2019-01-24T04:50:54.122Z,95355.48
2019-01-24T04:53:19.981Z,95352.58
2019-01-24T04:55:50.386Z,95354.23
2019-01-24T04:58:16.453Z,95358.92
2019-01-24T05:00:43.496Z,95366.48
2019-01-24T05:03:09.309Z,95368.77
2019-01-24T05:05:38.025Z,95366.02
2019-01-24T05:08:04.225Z,95374.66
2019-01-24T05:10:32.845Z,95373.58
2019-01-24T05:12:58.658Z,95396.05
2019-01-24T05:15:24.815Z,95381.11
2019-01-24T05:17:50.627Z,95380.42
2019-01-24T05:20:16.873Z,95381.89
2019-01-24T05:22:45.735Z,95390.03
2019-01-24T05:25:14.048Z,95406.24
2019-01-24T05:27:39.885Z,95396.05
2019-01-24T05:30:09.566Z,95396.94
2019-01-24T05:32:35.424Z,95401.23
2019-01-24T05:35:01.272Z,95377.28
2019-01-24T05:37:30.219Z,95407.01
2019-01-24T05:39:56.049Z,95410.44
2019-01-24T05:42:24.779Z,95411.64
2019-01-24T05:44:50.659Z,95425.26
2019-01-24T05:47:18.490Z,95415.00
2019-01-24T05:49:44.335Z,95434.39
2019-01-24T05:52:10.130Z,95429.50
2019-01-24T05:54:35.932Z,95431.06
2019-01-24T05:57:02.062Z,95433.97
2019-01-24T05:59:30.642Z,95437.04
2019-01-24T06:01:56.857Z,95445.28
2019-01-24T06:04:25.575Z,95442.00
2019-01-24T06:06:51.419Z,95463.66
2019-01-24T06:09:20.091Z,95454.42
2019-01-24T06:11:46.032Z,95456.69
2019-01-24T06:14:14.679Z,95455.82
2019-01-24T06:16:40.488Z,95462.27
2019-01-24T06:19:09.438Z,95454.94
2019-01-24T06:21:35.369Z,95457.34
2019-01-24T06:24:04.049Z,95462.53
2019-01-24T06:26:30.154Z,95462.53
2019-01-24T06:28:55.968Z,95461.60
2019-01-24T06:31:21.796Z,95467.05
2019-01-24T06:33:47.902Z,95465.59
2019-01-24T06:36:16.781Z,95473.08
2019-01-24T06:38:42.877Z,95488.80
2019-01-24T06:41:10.025Z,95479.98
2019-01-24T06:43:35.859Z,95481.16
2019-01-24T06:46:06.754Z,95481.65
2019-01-24T06:48:32.855Z,95486.01
2019-01-24T06:51:01.454Z,95486.20
2019-01-24T06:53:27.285Z,95493.09
2019-01-24T06:55:56.209Z,95488.31
2019-01-24T06:58:22.080Z,95515.29
2019-01-24T07:00:50.952Z,95502.66
2019-01-24T07:03:17.042Z,95521.02
2019-01-24T07:05:43.139Z,95507.55
2019-01-24T07:08:09.209Z,95502.66
2019-01-24T07:10:35.269Z,95506.48
2019-01-24T07:13:01.118Z,95516.00
2019-01-24T07:15:26.943Z,95511.22
2019-01-24T07:17:55.827Z,95519.95
2019-01-24T07:20:21.714Z,95520.91
2019-01-24T07:22:50.570Z,95524.06
2019-01-24T07:25:25.299Z,95540.44
2019-01-24T07:27:51.135Z,95527.00
2019-01-24T07:30:18.255Z,95546.11
2019-01-24T07:32:44.187Z,95537.44
2019-01-24T07:35:12.009Z,95535.42
2019-01-24T07:37:38.149Z,95534.53
2019-01-24T07:40:07.499Z,95555.70
2019-01-24T07:42:33.358Z,95555.55
2019-01-24T07:44:59.173Z,95560.97
2019-01-24T07:47:25.304Z,95556.30
2019-01-24T07:49:51.472Z,95560.93
2019-01-24T07:52:17.295Z,95571.30
2019-01-24T07:54:43.448Z,95573.45
2019-01-24T07:57:09.281Z,95572.77
2019-01-24T07:59:35.421Z,95582.52
2019-01-24T08:02:01.273Z,95608.84
2019-01-24T08:04:29.884Z,95580.47
2019-01-24T08:06:55.678Z,95579.09
2019-01-24T08:09:25.263Z,95580.30
2019-01-24T08:11:51.104Z,95580.11
2019-01-24T08:14:21.828Z,95580.75
2019-01-24T08:16:47.643Z,95584.14
2019-01-24T08:19:13.490Z,95586.52
2019-01-24T08:21:39.320Z,95592.01
2019-01-24T08:24:05.164Z,95595.62
2019-01-24T08:26:34.081Z,95599.61
2019-01-24T08:29:00.028Z,95600.32
2019-01-24T08:31:25.841Z,95597.95
2019-01-24T08:33:51.953Z,95595.62
2019-01-24T08:36:20.528Z,95598.47
2019-01-24T08:38:46.339Z,95595.11
2019-01-24T08:41:15.459Z,95591.41
2019-01-24T08:43:41.308Z,95597.59
2019-01-24T08:46:09.931Z,95600.78
2019-01-24T08:48:35.730Z,95605.45
2019-01-24T08:51:04.610Z,95604.29
2019-01-24T08:53:30.725Z,95608.84
2019-01-24T08:55:56.585Z,95611.98
2019-01-24T08:58:22.398Z,95610.95
2019-01-24T09:00:48.527Z,95614.15
2019-01-24T09:03:17.224Z,95615.89
2019-01-24T09:05:43.048Z,95628.70
2019-01-24T09:08:11.910Z,95619.70
2019-01-24T09:10:38.342Z,95624.50
2019-01-24T09:13:06.957Z,95628.37
2019-01-24T09:15:33.151Z,95656.20
2019-01-24T09:18:02.431Z,95629.36
2019-01-24T09:20:28.657Z,95628.36
2019-01-24T09:22:57.269Z,95617.03
2019-01-24T09:25:23.110Z,95631.55
2019-01-24T09:27:50.243Z,95639.45
2019-01-24T09:30:21.950Z,95643.30
2019-01-24T09:32:48.040Z,95596.90
2019-01-24T09:35:14.272Z,95647.22
2019-01-24T09:37:40.105Z,95645.94
2019-01-24T09:40:12.735Z,95652.36
2019-01-24T09:42:38.941Z,95661.83
2019-01-24T09:45:08.501Z,95656.20
2019-01-24T09:47:34.576Z,95660.64
2019-01-24T09:50:00.414Z,95665.69
2019-01-24T09:52:26.485Z,95668.78
2019-01-24T09:54:52.330Z,95666.81
2019-01-24T09:57:18.179Z,95669.23
2019-01-24T09:59:44.247Z,95671.86
2019-01-24T10:02:10.064Z,95674.67
2019-01-24T10:04:36.172Z,95678.30
2019-01-24T10:07:02.051Z,95683.98
2019-01-24T10:09:27.855Z,95674.91
2019-01-24T10:11:53.697Z,95679.54
2019-01-24T10:14:19.516Z,95680.53
2019-01-24T10:16:48.123Z,95685.42
2019-01-24T10:19:13.929Z,95703.83
2019-01-24T10:21:42.568Z,95691.50
2019-01-24T10:24:08.688Z,95696.97
2019-01-24T10:26:37.557Z,95692.41
2019-01-24T10:29:03.441Z,95693.31
2019-01-24T10:31:33.384Z,95699.38
2019-01-24T10:33:59.181Z,95698.09
2019-01-24T10:36:26.541Z,95702.08
2019-01-24T10:38:52.671Z,95701.13
2019-01-24T10:41:21.381Z,95696.81
2019-01-24T10:43:47.463Z,95699.22
2019-01-24T10:46:13.539Z,95688.11
2019-01-24T10:48:39.394Z,95701.16
2019-01-24T10:51:05.393Z,95702.09
2019-01-24T10:53:32.634Z,95706.98
2019-01-24T10:55:58.495Z,95694.98
2019-01-24T10:58:29.017Z,95706.02
2019-01-24T11:00:54.821Z,95702.95
2019-01-24T11:03:21.942Z,95707.12
2019-01-24T11:05:47.870Z,95713.95
2019-01-24T11:08:17.075Z,95710.23
2019-01-24T11:10:43.011Z,95713.12
2019-01-24T11:13:12.030Z,95706.06
2019-01-24T11:15:37.899Z,95711.97
2019-01-24T11:18:06.630Z,95716.27
2019-01-24T11:20:32.430Z,95714.14
2019-01-24T11:22:58.273Z,95713.08
2019-01-24T11:25:25.425Z,95721.78
2019-01-24T11:27:51.331Z,95715.89
2019-01-24T11:30:24.010Z,95714.71
2019-01-24T11:32:50.266Z,95730.30
2019-01-24T11:35:18.419Z,95721.82
2019-01-24T11:37:44.345Z,95717.52
2019-01-24T11:40:16.520Z,95715.78
2019-01-24T11:42:42.445Z,95713.59
2019-01-24T11:45:10.821Z,95709.66
2019-01-24T11:47:36.911Z,95707.52
2019-01-24T11:50:06.510Z,95713.41
2019-01-24T11:52:32.668Z,95711.36
2019-01-24T11:54:58.486Z,95708.92
2019-01-24T11:57:24.289Z,95711.67
2019-01-24T11:59:50.149Z,95715.83
2019-01-24T12:02:15.964Z,95709.45
2019-01-24T12:04:41.802Z,95715.53
2019-01-24T12:07:07.623Z,95701.27
2019-01-24T12:09:33.469Z,95700.81
2019-01-24T12:11:59.616Z,95705.66
2019-01-24T12:14:25.469Z,95713.55
2019-01-24T12:16:52.314Z,95710.58
2019-01-24T12:19:18.430Z,95713.48
2019-01-24T12:21:47.545Z,95713.09
2019-01-24T12:24:13.355Z,95712.41
2019-01-24T12:26:42.500Z,95713.02
2019-01-24T12:29:08.608Z,95734.98
2019-01-24T12:31:36.609Z,95712.47
2019-01-24T12:34:02.792Z,95712.31
2019-01-24T12:36:28.596Z,95715.84
2019-01-24T12:38:54.554Z,95720.67
2019-01-24T12:41:20.412Z,95721.10
2019-01-24T12:43:48.988Z,95719.28
2019-01-24T12:46:14.791Z,95717.36
2019-01-24T12:51:11.226Z,95707.18
2019-01-24T12:53:40.230Z,95712.36
2019-01-24T12:56:06.175Z,95709.45
2019-01-24T12:58:32.538Z,95712.28
2019-01-24T13:00:58.520Z,95743.16
2019-01-24T13:03:27.422Z,95719.78
2019-01-24T13:05:53.247Z,95734.72
2019-01-24T13:08:22.235Z,95723.70
2019-01-24T13:10:48.096Z,95731.75
2019-01-24T13:13:14.036Z,95684.53
2019-01-24T13:15:40.053Z,95729.55
2019-01-24T13:18:05.894Z,95728.96
2019-01-24T13:20:34.677Z,95725.95
2019-01-24T13:23:00.906Z,95742.74
2019-01-24T13:25:31.352Z,95732.87
2019-01-24T13:27:57.293Z,95749.52
2019-01-24T13:30:26.241Z,95737.44
2019-01-24T13:32:52.061Z,95737.44
2019-01-24T13:35:18.009Z,95727.07
2019-01-24T13:37:43.848Z,95745.02
2019-01-24T13:40:15.862Z,95742.70
2019-01-24T13:42:41.986Z,95761.52
2019-01-24T13:45:16.910Z,95746.11
2019-01-24T13:47:42.833Z,95743.67
2019-01-24T13:50:11.566Z,95747.58
2019-01-24T13:52:37.413Z,95750.52
2019-01-24T13:55:03.635Z,95762.41
2019-01-24T13:57:29.462Z,95757.45
2019-01-24T13:59:55.607Z,95764.33
2019-01-24T14:02:21.667Z,95768.39
2019-01-24T14:04:47.463Z,95770.44
2019-01-24T14:07:13.327Z,95773.48
2019-01-24T14:09:39.143Z,95771.41
2019-01-24T14:12:05.389Z,95775.35
2019-01-24T14:14:31.194Z,95776.56
2019-01-24T14:17:00.240Z,95780.88
2019-01-24T14:19:26.367Z,95805.89
2019-01-24T14:21:55.429Z,95795.72
2019-01-24T14:24:21.235Z,95801.67
2019-01-24T14:26:47.088Z,95802.17
2019-01-24T14:29:12.986Z,95801.17
2019-01-24T14:31:38.824Z,95794.42
2019-01-24T14:34:04.879Z,95765.91
2019-01-24T14:36:30.954Z,95809.39
2019-01-24T14:38:59.869Z,95812.20
2019-01-24T14:41:25.709Z,95817.70
2019-01-24T14:43:54.282Z,95812.91
2019-01-24T14:46:20.450Z,95827.77
2019-01-24T14:48:48.797Z,95822.98
2019-01-24T14:51:14.626Z,95827.31
2019-01-24T14:53:43.810Z,95832.48
2019-01-24T14:56:09.933Z,95848.66
2019-01-24T14:58:38.614Z,95832.34
2019-01-24T15:01:05.456Z,95840.75
2019-01-24T15:03:31.303Z,95826.50
2019-01-24T15:05:57.105Z,95840.58
2019-01-24T15:08:22.940Z,95841.25
2019-01-24T15:10:52.211Z,95836.39
2019-01-24T15:13:18.029Z,95836.49
2019-01-24T15:15:47.190Z,95836.98
2019-01-24T15:18:13.279Z,95854.11
2019-01-24T15:20:39.486Z,95836.77
2019-01-24T15:23:05.354Z,95743.31
2019-01-24T15:25:36.262Z,95834.38
2019-01-24T15:28:02.090Z,95841.91
2019-01-24T15:30:30.921Z,95845.03
2019-01-24T15:32:57.138Z,95854.00
2019-01-24T15:35:26.152Z,95842.20
2019-01-24T15:37:54.711Z,95846.91
2019-01-24T15:40:22.428Z,95844.59
2019-01-24T15:42:48.239Z,95845.89
2019-01-24T15:45:15.587Z,95846.14
2019-01-24T15:47:41.814Z,95850.63
2019-01-24T15:50:10.746Z,95856.78
2019-01-24T15:52:36.625Z,95855.41
2019-01-24T15:55:04.272Z,95850.77
2019-01-24T15:57:30.085Z,95851.74
2019-01-24T15:59:55.944Z,95851.77
2019-01-24T16:02:21.765Z,95861.63
2019-01-24T16:04:47.580Z,95855.64
2019-01-24T16:07:14.918Z,95868.33
2019-01-24T16:09:40.733Z,95892.63
2019-01-24T16:12:09.639Z,95869.63
2019-01-24T16:14:35.766Z,95893.16
2019-01-24T16:17:01.585Z,95881.69
2019-01-24T16:19:27.425Z,95881.07
2019-01-24T16:21:53.529Z,95884.70
2019-01-24T16:24:22.465Z,95892.28
2019-01-24T16:26:48.294Z,95890.52
2019-01-24T16:29:17.370Z,95889.51
2019-01-24T16:31:43.199Z,95896.25
2019-01-24T16:34:12.200Z,95903.27
2019-01-24T16:36:38.347Z,95904.24
2019-01-24T16:39:06.331Z,95900.48
2019-01-24T16:41:32.142Z,95929.80
2019-01-24T16:43:59.427Z,95911.92
2019-01-24T16:46:25.265Z,95912.13
2019-01-24T16:48:55.678Z,95914.83
2019-01-24T16:51:21.728Z,95934.41
2019-01-24T16:53:47.915Z,95915.98
2019-01-24T16:56:13.801Z,95924.42
2019-01-24T16:58:39.710Z,95929.13
2019-01-24T17:01:05.726Z,95931.71
2019-01-24T17:03:31.550Z,95932.20
2019-01-24T17:06:00.468Z,95929.25
2019-01-24T17:08:26.278Z,95960.15
2019-01-24T17:10:55.197Z,95937.20
2019-01-24T17:13:21.416Z,95959.27
2019-01-24T17:15:50.289Z,95940.60
2019-01-24T17:18:16.101Z,95943.55
2019-01-24T17:20:44.930Z,95938.63
2019-01-24T17:23:11.034Z,95964.60
2019-01-24T17:25:39.647Z,95959.96
2019-01-24T17:28:05.711Z,95960.98
2019-01-24T17:30:31.921Z,95963.92
2019-01-24T17:32:58.058Z,95965.85
2019-01-24T17:35:24.102Z,95970.41
2019-01-24T17:37:53.141Z,95975.08
2019-01-24T17:40:34.767Z,95974.55
2019-01-24T17:43:00.868Z,95982.53
2019-01-24T17:45:27.353Z,95980.75
2019-01-24T17:47:53.250Z,95985.73
2019-01-24T17:50:19.506Z,95990.20
2019-01-24T17:52:45.331Z,95993.15
2019-01-24T17:55:37.334Z,95989.41
2019-01-24T17:58:04.843Z,95997.59
2019-01-24T18:00:32.860Z,96000.29
2019-01-24T18:02:58.735Z,96008.20
2019-01-24T18:05:24.629Z,96008.59
2019-01-24T18:07:50.771Z,96007.83
2019-01-24T18:10:24.864Z,96012.90
2019-01-24T18:12:50.990Z,96011.09
2019-01-24T18:15:22.255Z,96017.80
2019-01-24T18:17:48.108Z,96017.14
2019-01-24T18:20:18.284Z,96012.41
2019-01-24T18:22:44.283Z,96026.69
2019-01-24T18:25:10.161Z,96022.70
2019-01-24T18:27:36.223Z,96023.27
2019-01-24T18:30:05.159Z,96024.63
2019-01-24T18:32:30.975Z,95987.40
2019-01-24T18:34:57.153Z,96034.73
2019-01-24T18:37:23.002Z,96036.92
2019-01-24T18:39:48.790Z,96029.59
2019-01-24T18:42:14.742Z,96026.95
2019-01-24T18:44:40.543Z,96032.39
2019-01-24T18:47:06.771Z,96039.05
2019-01-24T18:49:32.868Z,96030.89
2019-01-24T18:51:58.897Z,96037.69
2019-01-24T18:54:24.726Z,96038.63
2019-01-24T18:56:50.654Z,96047.97
2019-01-24T18:59:16.562Z,96042.88
2019-01-24T19:01:42.675Z,96045.03
2019-01-24T19:04:08.502Z,96052.41
2019-01-24T19:06:34.360Z,96051.54
2019-01-24T19:09:00.192Z,96004.74
2019-01-24T19:11:26.007Z,96052.18
2019-01-24T19:13:52.086Z,96055.58
2019-01-24T19:16:17.907Z,96061.50
2019-01-24T19:18:43.971Z,96059.16
2019-01-24T19:21:09.924Z,96067.80
2019-01-24T19:23:35.732Z,96069.47
2019-01-24T19:26:01.556Z,96064.77
2019-01-24T19:28:27.415Z,96062.03
2019-01-24T19:30:53.538Z,96062.16
2019-01-24T19:33:19.466Z,96054.45
2019-01-24T19:35:45.305Z,96062.80
2019-01-24T19:38:11.413Z,96067.50
2019-01-24T19:40:37.252Z,96065.35
2019-01-24T19:43:03.192Z,96068.77
2019-01-24T19:45:29.106Z,96075.74
2019-01-24T19:47:54.921Z,96076.81
2019-01-24T19:50:25.629Z,96078.06
2019-01-24T19:52:51.572Z,96077.77
2019-01-24T19:55:17.502Z,96074.34
2019-01-24T19:57:43.753Z,96084.16
2019-01-24T20:00:21.728Z,96077.27
2019-01-24T20:02:48.030Z,96086.89
2019-01-24T20:05:15.584Z,96087.72
2019-01-24T20:07:41.498Z,96095.80
2019-01-24T20:10:19.022Z,96095.16
2019-01-24T20:12:45.182Z,96100.16
2019-01-24T20:15:14.708Z,96103.63
2019-01-24T20:17:40.702Z,96104.35
2019-01-24T20:20:09.889Z,96112.38
2019-01-24T20:22:35.931Z,96107.82
2019-01-24T20:25:02.146Z,96109.97
2019-01-24T20:27:27.976Z,96114.19
2019-01-24T20:29:53.789Z,96068.06
2019-01-24T20:32:19.637Z,96118.24
2019-01-24T20:34:45.438Z,96118.52
2019-01-24T20:37:11.294Z,96125.28
2019-01-24T20:39:37.398Z,96125.81
2019-01-24T20:42:03.373Z,96123.03
2019-01-24T20:44:29.497Z,96131.78
2019-01-24T20:46:55.327Z,96127.71
2019-01-24T20:49:21.148Z,96126.75
2019-01-24T20:51:47.257Z,96134.48
2019-01-24T20:54:13.062Z,96135.66
2019-01-24T20:56:39.052Z,96137.34
2019-01-24T20:59:05.094Z,96147.05
2019-01-24T21:01:30.912Z,96148.67
2019-01-24T21:03:56.775Z,96149.19
2019-01-24T21:06:22.584Z,96147.92
2019-01-24T21:08:48.691Z,96148.51
2019-01-24T21:11:14.533Z,96146.72
2019-01-24T21:13:40.359Z,96150.86
2019-01-24T21:16:06.592Z,96158.06
2019-01-24T21:18:32.397Z,96157.19
2019-01-24T21:20:58.247Z,96156.05
2019-01-24T21:23:24.073Z,96159.50
2019-01-24T21:25:49.903Z,96165.83
2019-01-24T21:28:15.851Z,96165.47
2019-01-24T21:30:41.643Z,96163.72
2019-01-24T21:33:07.602Z,96164.95
2019-01-24T21:35:33.525Z,96168.66
2019-01-24T21:38:01.895Z,96163.20
2019-01-24T21:40:27.932Z,96162.52
2019-01-24T21:42:58.948Z,96166.77
2019-01-24T21:45:27.293Z,96169.74
2019-01-24T21:47:53.248Z,96165.67
2019-01-24T21:50:21.473Z,96158.48
2019-01-24T21:52:47.347Z,96163.44
2019-01-24T21:55:14.016Z,96162.69
2019-01-24T21:57:40.162Z,96170.07
2019-01-24T22:00:18.574Z,96163.28
2019-01-24T22:02:44.676Z,96168.27
2019-01-24T22:05:12.321Z,96168.70
2019-01-24T22:07:38.281Z,96167.41
2019-01-24T22:10:07.915Z,96167.22
2019-01-24T22:12:34.038Z,96171.91
2019-01-24T22:15:00.242Z,96172.00
2019-01-24T22:17:26.347Z,96174.46
2019-01-24T22:19:52.441Z,96174.77
2019-01-24T22:22:18.269Z,96179.44
2019-01-24T22:24:44.077Z,96175.45
2019-01-24T22:27:10.024Z,96181.00
2019-01-24T22:29:35.875Z,96182.58
2019-01-24T22:32:01.721Z,96190.65
2019-01-24T22:34:27.647Z,96185.08
2019-01-24T22:36:53.455Z,96183.48
2019-01-24T22:39:19.292Z,96185.25
2019-01-24T22:41:45.188Z,96182.96
2019-01-24T22:44:11.460Z,96182.86
2019-01-24T22:46:37.334Z,96109.75
2019-01-24T22:49:03.362Z,96201.48
2019-01-24T22:51:32.369Z,96177.14
2019-01-24T22:53:58.205Z,96179.22
2019-01-24T22:56:26.782Z,96179.59
2019-01-24T22:58:53.020Z,96197.54
2019-01-24T23:01:22.938Z,96181.87
2019-01-24T23:03:49.002Z,96184.84
2019-01-24T23:06:15.146Z,96186.21
2019-01-24T23:08:41.452Z,96189.45
2019-01-24T23:11:07.615Z,96183.00
2019-01-24T23:13:33.462Z,96181.99
2019-01-24T23:15:59.269Z,96180.95
2019-01-24T23:18:28.378Z,96188.86
2019-01-24T23:20:54.217Z,96185.72
2019-01-24T23:23:24.558Z,96189.14
2019-01-24T23:25:50.686Z,96208.59
2019-01-24T23:28:18.172Z,96188.22
2019-01-24T23:30:44.020Z,96209.84
2019-01-24T23:33:12.704Z,96192.00
2019-01-24T23:35:38.526Z,96193.12
2019-01-24T23:38:04.596Z,96187.09
2019-01-24T23:40:30.654Z,96186.75
2019-01-24T23:42:56.668Z,96199.65
2019-01-24T23:45:25.796Z,96197.28
2019-01-24T23:47:51.907Z,96226.09
2019-01-24T23:50:21.045Z,96199.36
2019-01-24T23:52:47.142Z,96219.94
2019-01-24T23:55:16.017Z,96191.06
2019-01-24T23:57:41.818Z,96214.44
